createdAt,value
2017-09-04T00:02:06.086Z,86.30
2017-09-04T00:04:33.841Z,86.30
2017-09-04T00:07:02.159Z,86.90
2017-09-04T00:09:29.826Z,86.60
2017-09-04T00:11:57.454Z,86.70
2017-09-04T00:14:25.134Z,87.00
2017-09-04T00:16:52.770Z,87.10
2017-09-04T00:19:20.406Z,87.20
2017-09-04T00:21:48.068Z,87.00
2017-09-04T00:24:15.708Z,86.90
2017-09-04T00:26:45.194Z,87.30
2017-09-04T00:29:12.845Z,86.70
2017-09-04T00:31:40.458Z,86.90
2017-09-04T00:34:08.106Z,87.50
2017-09-04T00:36:35.713Z,87.50
2017-09-04T00:39:03.393Z,87.10
2017-09-04T00:41:31.042Z,87.00
2017-09-04T00:43:58.629Z,87.10
2017-09-04T00:46:26.245Z,86.90
2017-09-04T00:48:53.835Z,87.00
2017-09-04T00:51:21.501Z,86.90
2017-09-04T00:53:49.153Z,87.00
2017-09-04T00:56:16.831Z,87.10
2017-09-04T00:58:44.473Z,87.50
2017-09-04T01:01:12.092Z,87.20
2017-09-04T01:03:39.715Z,87.10
2017-09-04T01:06:07.383Z,87.20
2017-09-04T01:08:35.028Z,87.30
2017-09-04T01:11:02.674Z,87.20
2017-09-04T01:13:30.854Z,86.50
2017-09-04T01:15:58.476Z,86.30
2017-09-04T01:18:26.087Z,87.10
2017-09-04T01:20:53.875Z,87.30
2017-09-04T01:23:21.510Z,87.80
2017-09-04T01:25:49.181Z,87.40
2017-09-04T01:28:16.773Z,86.90
2017-09-04T01:30:44.367Z,87.10
2017-09-04T01:33:11.985Z,87.50
2017-09-04T01:35:39.588Z,86.80
2017-09-04T01:38:07.254Z,86.30
2017-09-04T01:40:34.850Z,86.60
2017-09-04T01:43:02.561Z,87.50
2017-09-04T01:45:30.197Z,86.60
2017-09-04T01:47:57.844Z,86.60
2017-09-04T01:50:25.465Z,86.80
2017-09-04T01:52:53.142Z,86.90
2017-09-04T01:55:20.807Z,86.50
2017-09-04T01:57:48.416Z,86.50
2017-09-04T02:00:16.086Z,86.40
2017-09-04T02:02:43.729Z,86.20
2017-09-04T02:05:11.379Z,85.80
2017-09-04T02:07:38.975Z,86.30
2017-09-04T02:10:06.655Z,86.30
2017-09-04T02:12:34.275Z,86.20
2017-09-04T02:15:01.931Z,86.50
2017-09-04T02:17:29.553Z,86.60
2017-09-04T02:19:57.217Z,86.30
2017-09-04T02:22:24.828Z,86.40
2017-09-04T02:24:52.620Z,86.20
2017-09-04T02:27:20.230Z,86.10
2017-09-04T02:29:48.324Z,85.90
2017-09-04T02:32:15.956Z,85.70
2017-09-04T02:34:43.607Z,85.80
2017-09-04T02:37:11.286Z,85.50
2017-09-04T02:39:38.968Z,85.50
2017-09-04T02:42:06.652Z,85.50
2017-09-04T02:44:34.319Z,86.10
2017-09-04T02:47:01.926Z,86.00
2017-09-04T02:49:29.584Z,85.70
2017-09-04T02:51:57.263Z,85.40
2017-09-04T02:54:24.942Z,85.70
2017-09-04T02:56:52.557Z,86.10
2017-09-04T02:59:20.173Z,86.10
2017-09-04T03:01:47.734Z,86.60
2017-09-04T03:04:15.398Z,86.80
2017-09-04T03:06:42.982Z,87.80
2017-09-04T03:09:10.593Z,86.80
2017-09-04T03:11:38.244Z,87.00
2017-09-04T03:14:05.952Z,86.70
2017-09-04T03:16:34.397Z,87.20
2017-09-04T03:19:02.071Z,87.20
2017-09-04T03:21:29.757Z,87.40
2017-09-04T03:23:57.437Z,87.40
2017-09-04T03:26:25.086Z,87.20
2017-09-04T03:28:52.747Z,87.20
2017-09-04T03:31:20.406Z,87.60
2017-09-04T03:33:48.085Z,87.40
2017-09-04T03:36:15.701Z,87.30
2017-09-04T03:38:43.349Z,87.80
2017-09-04T03:41:10.983Z,88.20
2017-09-04T03:43:38.707Z,88.20
2017-09-04T03:46:06.362Z,87.90
2017-09-04T03:48:34.196Z,87.40
2017-09-04T03:51:02.076Z,86.40
2017-09-04T03:53:29.715Z,86.10
2017-09-04T03:55:57.391Z,86.50
2017-09-04T03:58:25.049Z,87.00
2017-09-04T04:00:52.737Z,86.70
2017-09-04T04:03:20.407Z,86.20
2017-09-04T04:05:50.238Z,86.00
2017-09-04T04:08:17.910Z,85.90
2017-09-04T04:10:45.518Z,86.00
2017-09-04T04:13:13.179Z,86.00
2017-09-04T04:15:40.792Z,86.40
2017-09-04T04:18:08.444Z,86.40
2017-09-04T04:20:36.083Z,86.60
2017-09-04T04:23:03.755Z,86.80
2017-09-04T04:25:31.696Z,87.70
2017-09-04T04:27:59.366Z,88.40
2017-09-04T04:30:27.038Z,87.40
2017-09-04T04:32:54.660Z,85.90
2017-09-04T04:35:22.301Z,85.60
2017-09-04T04:37:50.019Z,85.90
2017-09-04T04:40:17.666Z,86.00
2017-09-04T04:42:45.291Z,86.60
2017-09-04T04:45:12.877Z,87.90
2017-09-04T04:47:40.548Z,88.20
2017-09-04T04:50:08.141Z,88.60
2017-09-04T04:52:35.849Z,87.70
2017-09-04T04:55:03.560Z,88.50
2017-09-04T04:57:31.275Z,87.50
2017-09-04T04:59:58.945Z,87.20
2017-09-04T05:02:26.564Z,87.60
2017-09-04T05:04:54.219Z,87.40
2017-09-04T05:07:21.825Z,86.70
2017-09-04T05:09:49.496Z,86.70
2017-09-04T05:12:17.108Z,86.50
2017-09-04T05:14:44.772Z,86.40
2017-09-04T05:17:12.370Z,86.50
2017-09-04T05:19:41.457Z,86.00
2017-09-04T05:22:09.807Z,85.80
2017-09-04T05:24:37.715Z,85.80
2017-09-04T05:27:07.851Z,85.30
2017-09-04T05:29:36.636Z,85.20
2017-09-04T05:32:06.835Z,85.50
2017-09-04T05:34:38.155Z,85.20
2017-09-04T05:37:08.169Z,84.80
2017-09-04T05:39:37.230Z,84.80
2017-09-04T05:42:07.265Z,84.60
2017-09-04T05:44:38.213Z,84.40
2017-09-04T05:47:10.848Z,85.80
2017-09-04T05:49:40.891Z,85.40
2017-09-04T05:52:13.598Z,84.70
2017-09-04T05:54:42.638Z,84.70
2017-09-04T05:57:12.636Z,83.30
2017-09-04T05:59:41.046Z,81.90
2017-09-04T06:02:09.476Z,81.70
2017-09-04T06:04:39.218Z,81.20
2017-09-04T06:07:08.123Z,81.90
2017-09-04T06:09:37.687Z,82.30
2017-09-04T06:12:06.624Z,81.90
2017-09-04T06:14:35.563Z,80.50
2017-09-04T06:17:04.327Z,80.20
2017-09-04T06:19:32.787Z,80.30
2017-09-04T06:22:01.471Z,80.40
2017-09-04T06:24:29.161Z,80.40
2017-09-04T06:26:56.863Z,79.90
2017-09-04T06:29:25.512Z,80.20
2017-09-04T06:31:53.099Z,79.00
2017-09-04T06:34:20.763Z,78.80
2017-09-04T06:36:48.377Z,77.90
2017-09-04T06:39:15.981Z,77.80
2017-09-04T06:41:43.679Z,77.80
2017-09-04T06:44:11.489Z,77.90
2017-09-04T06:46:39.237Z,75.80
2017-09-04T06:49:07.166Z,75.00
2017-09-04T06:51:35.193Z,74.80
2017-09-04T06:54:04.289Z,73.70
2017-09-04T06:56:33.476Z,73.00
2017-09-04T06:59:01.385Z,73.00
2017-09-04T07:01:29.009Z,74.80
2017-09-04T07:03:56.625Z,73.40
2017-09-04T07:06:25.052Z,71.90
2017-09-04T07:08:52.674Z,71.90
2017-09-04T07:11:20.357Z,72.10
2017-09-04T07:13:47.976Z,71.50
2017-09-04T07:16:15.599Z,72.20
2017-09-04T07:18:43.192Z,72.40
2017-09-04T07:21:10.993Z,72.40
2017-09-04T07:23:38.809Z,71.20
2017-09-04T07:26:06.627Z,70.70
2017-09-04T07:28:34.853Z,71.00
2017-09-04T07:31:02.881Z,72.80
2017-09-04T07:33:31.296Z,71.20
2017-09-04T07:35:58.958Z,70.50
2017-09-04T07:38:26.550Z,68.50
2017-09-04T07:40:54.195Z,66.90
2017-09-04T07:43:21.795Z,64.20
2017-09-04T07:45:49.689Z,66.40
2017-09-04T07:48:17.247Z,64.80
2017-09-04T07:50:45.543Z,62.10
2017-09-04T07:53:13.118Z,62.00
2017-09-04T07:55:40.675Z,61.30
2017-09-04T07:58:08.324Z,62.80
2017-09-04T08:00:36.586Z,63.40
2017-09-04T08:03:04.650Z,62.90
2017-09-04T08:05:33.337Z,62.20
2017-09-04T08:08:02.065Z,60.60
2017-09-04T08:10:29.681Z,59.90
2017-09-04T08:12:57.411Z,58.90
2017-09-04T08:15:24.952Z,60.60
2017-09-04T08:17:52.523Z,60.80
2017-09-04T08:20:20.055Z,59.20
2017-09-04T08:22:47.584Z,58.00
2017-09-04T08:25:15.148Z,59.10
2017-09-04T08:27:42.690Z,60.50
2017-09-04T08:30:10.336Z,60.60
2017-09-04T08:32:38.020Z,61.00
2017-09-04T08:35:05.673Z,60.10
2017-09-04T08:37:33.341Z,59.40
2017-09-04T08:40:01.036Z,59.50
2017-09-04T08:42:28.600Z,58.40
2017-09-04T08:44:56.200Z,56.00
2017-09-04T08:47:23.733Z,55.80
2017-09-04T08:49:51.260Z,58.30
2017-09-04T08:52:18.852Z,57.80
2017-09-04T08:54:46.399Z,57.30
2017-09-04T08:57:13.939Z,58.50
2017-09-04T08:59:41.521Z,56.20
2017-09-04T09:02:09.141Z,55.80
2017-09-04T09:04:36.753Z,56.80
2017-09-04T09:07:04.891Z,57.60
2017-09-04T09:09:32.605Z,58.90
2017-09-04T09:12:00.253Z,56.50
2017-09-04T09:14:27.832Z,56.50
2017-09-04T09:16:55.388Z,55.90
2017-09-04T09:19:23.179Z,56.00
2017-09-04T09:21:50.811Z,55.10
2017-09-04T09:24:18.406Z,56.00
2017-09-04T09:26:45.948Z,56.10
2017-09-04T09:29:13.580Z,56.00
2017-09-04T09:31:41.521Z,57.70
2017-09-04T09:34:09.241Z,57.20
2017-09-04T09:36:37.168Z,56.70
2017-09-04T09:39:04.719Z,59.00
2017-09-04T09:41:32.256Z,59.30
2017-09-04T09:43:59.842Z,58.50
2017-09-04T09:46:27.380Z,58.60
2017-09-04T09:48:54.965Z,58.00
2017-09-04T09:51:22.491Z,58.30
2017-09-04T09:53:50.020Z,58.90
2017-09-04T09:56:17.648Z,59.30
2017-09-04T09:58:45.421Z,59.00
2017-09-04T10:01:13.087Z,58.60
2017-09-04T10:03:40.835Z,57.60
2017-09-04T10:06:10.159Z,57.50
2017-09-04T10:08:37.859Z,57.20
2017-09-04T10:11:05.448Z,57.50
2017-09-04T10:13:33.025Z,56.60
2017-09-04T10:16:00.576Z,57.50
2017-09-04T10:18:28.143Z,57.60
2017-09-04T10:20:55.672Z,58.70
2017-09-04T10:23:23.561Z,57.70
2017-09-04T10:25:51.235Z,57.40
2017-09-04T10:28:19.876Z,57.50
2017-09-04T10:30:48.713Z,56.90
2017-09-04T10:33:16.940Z,57.60
2017-09-04T10:35:46.359Z,56.90
2017-09-04T10:38:15.513Z,56.90
2017-09-04T10:40:43.090Z,57.00
2017-09-04T10:43:10.715Z,55.50
2017-09-04T10:45:38.491Z,57.40
2017-09-04T10:48:06.867Z,56.00
2017-09-04T10:50:35.004Z,56.10
2017-09-04T10:53:02.582Z,55.40
2017-09-04T10:55:30.159Z,56.00
2017-09-04T10:57:57.713Z,54.90
2017-09-04T11:00:25.832Z,54.10
2017-09-04T11:02:53.423Z,53.90
2017-09-04T11:05:21.198Z,54.00
2017-09-04T11:07:49.426Z,53.00
2017-09-04T11:10:17.429Z,53.90
2017-09-04T11:12:45.049Z,53.90
2017-09-04T11:15:12.905Z,53.00
2017-09-04T11:17:40.497Z,52.30
2017-09-04T11:20:08.040Z,50.60
2017-09-04T11:22:35.624Z,51.50
2017-09-04T11:25:03.166Z,52.20
2017-09-04T11:27:31.017Z,52.70
2017-09-04T11:29:58.626Z,51.30
2017-09-04T11:32:26.271Z,52.10
2017-09-04T11:34:57.504Z,51.80
2017-09-04T11:37:26.431Z,51.00
2017-09-04T11:39:54.744Z,51.40
2017-09-04T11:42:22.778Z,50.20
2017-09-04T11:44:50.795Z,49.00
2017-09-04T11:47:18.603Z,49.70
2017-09-04T11:49:46.136Z,50.10
2017-09-04T11:52:13.716Z,49.50
2017-09-04T11:54:41.248Z,48.90
2017-09-04T11:57:08.808Z,50.10
2017-09-04T11:59:36.463Z,50.50
2017-09-04T12:02:04.124Z,52.10
2017-09-04T12:04:31.739Z,52.00
2017-09-04T12:06:59.331Z,50.50
2017-09-04T12:09:27.022Z,50.20
2017-09-04T12:11:54.657Z,50.50
2017-09-04T12:14:22.249Z,50.20
2017-09-04T12:16:49.817Z,51.20
2017-09-04T12:19:17.387Z,51.20
2017-09-04T12:21:44.928Z,51.50
2017-09-04T12:24:12.551Z,50.80
2017-09-04T12:26:40.090Z,50.50
2017-09-04T12:29:07.706Z,49.30
2017-09-04T12:31:35.289Z,46.70
2017-09-04T12:34:02.836Z,47.30
2017-09-04T12:36:30.452Z,46.40
2017-09-04T12:38:58.030Z,46.10
2017-09-04T12:41:25.657Z,45.20
2017-09-04T12:43:53.397Z,45.80
2017-09-04T12:46:21.019Z,46.90
2017-09-04T12:48:48.551Z,45.20
2017-09-04T12:51:16.555Z,45.30
2017-09-04T12:53:44.150Z,45.50
2017-09-04T12:56:11.726Z,48.30
2017-09-04T12:58:39.256Z,47.20
2017-09-04T13:01:06.832Z,48.90
2017-09-04T13:03:34.367Z,51.10
2017-09-04T13:06:01.976Z,47.50
2017-09-04T13:08:29.579Z,49.40
2017-09-04T13:11:02.878Z,50.20
2017-09-04T13:13:30.443Z,49.70
2017-09-04T13:19:20.574Z,45.10
2017-09-04T13:21:53.788Z,44.40
2017-09-04T13:24:26.990Z,46.70
2017-09-04T13:30:13.236Z,43.20
2017-09-04T13:32:52.471Z,44.00
2017-09-04T13:35:25.723Z,45.20
2017-09-04T13:37:58.892Z,40.90
2017-09-04T13:43:32.747Z,42.70
2017-09-04T13:49:22.629Z,39.10
2017-09-04T13:52:10.916Z,39.90
2017-09-04T13:54:44.207Z,41.50
2017-09-04T13:57:17.484Z,42.50
2017-09-04T13:59:50.836Z,46.30
2017-09-04T14:02:24.060Z,46.10
2017-09-04T14:08:23.934Z,44.90
2017-09-04T14:10:57.171Z,46.20
2017-09-04T14:13:30.696Z,45.30
2017-09-04T14:16:03.895Z,46.00
2017-09-04T14:18:31.527Z,46.30
2017-09-04T14:20:59.105Z,48.80
2017-09-04T14:23:26.722Z,50.00
2017-09-04T14:25:54.373Z,46.60
2017-09-04T14:28:21.943Z,45.50
2017-09-04T14:30:49.487Z,47.70
2017-09-04T14:33:17.156Z,46.20
2017-09-04T14:35:44.801Z,48.80
2017-09-04T14:38:12.331Z,50.60
2017-09-04T14:40:45.721Z,51.40
2017-09-04T14:46:28.620Z,50.10
2017-09-04T14:48:56.276Z,47.50
2017-09-04T14:51:23.953Z,48.20
2017-09-04T14:53:51.557Z,49.30
2017-09-04T14:56:19.104Z,52.00
2017-09-04T14:58:46.901Z,52.00
2017-09-04T15:01:14.513Z,52.40
2017-09-04T15:03:42.060Z,53.70
2017-09-04T15:06:09.634Z,54.30
2017-09-04T15:08:37.172Z,51.60
2017-09-04T15:11:04.748Z,51.00
2017-09-04T15:13:33.369Z,52.00
2017-09-04T15:16:01.041Z,53.30
2017-09-04T15:18:28.607Z,52.80
2017-09-04T15:20:56.226Z,53.00
2017-09-04T15:23:23.836Z,54.10
2017-09-04T15:25:51.422Z,52.50
2017-09-04T15:28:18.947Z,53.90
2017-09-04T15:30:46.532Z,55.20
2017-09-04T15:33:14.851Z,57.90
2017-09-04T15:35:42.424Z,57.90
2017-09-04T15:38:09.952Z,57.90
2017-09-04T15:40:37.545Z,57.50
2017-09-04T15:43:05.072Z,58.00
2017-09-04T15:45:32.627Z,57.90
2017-09-04T15:48:00.217Z,58.50
2017-09-04T15:50:27.820Z,59.30
2017-09-04T15:52:55.449Z,59.70
2017-09-04T15:55:23.076Z,60.30
2017-09-04T15:57:50.741Z,60.50
2017-09-04T16:00:18.334Z,60.00
2017-09-04T16:02:45.899Z,59.60
2017-09-04T16:05:13.426Z,60.20
2017-09-04T16:07:40.984Z,59.70
2017-09-04T16:10:09.308Z,60.80
2017-09-04T16:15:41.714Z,61.60
2017-09-04T16:18:10.095Z,61.80
2017-09-04T16:20:40.099Z,63.60
2017-09-04T16:23:10.510Z,62.30
2017-09-04T16:25:47.959Z,62.90
2017-09-04T16:28:18.079Z,63.00
2017-09-04T16:30:48.412Z,62.10
2017-09-04T16:33:16.934Z,61.70
2017-09-04T16:35:48.047Z,62.60
2017-09-04T16:38:15.620Z,63.50
2017-09-04T16:40:43.162Z,64.80
2017-09-04T16:43:25.523Z,66.00
2017-09-04T16:45:57.613Z,66.40
2017-09-04T16:48:36.987Z,67.80
2017-09-04T16:51:07.895Z,66.80
2017-09-04T16:53:35.460Z,66.80
2017-09-04T16:56:03.811Z,67.10
2017-09-04T16:58:32.144Z,67.30
2017-09-04T17:00:59.772Z,67.20
2017-09-04T17:03:27.365Z,66.60
2017-09-04T17:05:54.906Z,65.90
2017-09-04T17:08:24.078Z,66.80
2017-09-04T17:10:52.419Z,66.70
2017-09-04T17:13:20.371Z,66.60
2017-09-04T17:15:50.365Z,66.50
2017-09-04T17:18:20.613Z,67.10
2017-09-04T17:20:48.185Z,67.40
2017-09-04T17:23:25.792Z,68.00
2017-09-04T17:25:53.445Z,67.80
2017-09-04T17:28:21.028Z,67.30
2017-09-04T17:30:48.555Z,67.50
2017-09-04T17:33:16.125Z,69.20
2017-09-04T17:35:44.573Z,69.20
2017-09-04T17:38:12.140Z,68.80
2017-09-04T17:40:39.680Z,68.90
2017-09-04T17:43:07.287Z,69.80
2017-09-04T17:45:34.857Z,69.60
2017-09-04T17:48:02.478Z,70.40
2017-09-04T17:50:30.017Z,70.10
2017-09-04T17:52:58.689Z,70.20
2017-09-04T17:55:26.296Z,70.50
2017-09-04T17:57:53.880Z,71.50
2017-09-04T18:00:21.424Z,72.40
2017-09-04T18:02:48.992Z,71.90
2017-09-04T18:05:16.637Z,72.10
2017-09-04T18:07:44.224Z,72.80
2017-09-04T18:10:11.769Z,72.70
2017-09-04T18:12:39.346Z,72.60
2017-09-04T18:15:06.880Z,72.50
2017-09-04T18:17:34.465Z,72.10
2017-09-04T18:20:02.009Z,71.40
2017-09-04T18:22:30.014Z,70.10
2017-09-04T18:24:57.605Z,70.30
2017-09-04T18:27:25.212Z,71.00
2017-09-04T18:29:52.755Z,71.50
2017-09-04T18:32:20.287Z,70.80
2017-09-04T18:34:48.623Z,70.80
2017-09-04T18:37:16.484Z,70.50
2017-09-04T18:39:45.385Z,70.90
2017-09-04T18:42:12.975Z,70.80
2017-09-04T18:44:40.539Z,71.10
2017-09-04T18:47:08.110Z,72.00
2017-09-04T18:49:35.640Z,71.60
2017-09-04T18:52:03.203Z,72.90
2017-09-04T18:54:30.739Z,71.70
2017-09-04T18:56:58.301Z,71.70
2017-09-04T18:59:25.944Z,72.40
2017-09-04T19:01:53.548Z,71.80
2017-09-04T19:04:21.079Z,72.00
2017-09-04T19:06:48.673Z,71.80
2017-09-04T19:09:16.264Z,72.30
2017-09-04T19:11:43.862Z,72.40
2017-09-04T19:14:11.396Z,72.20
2017-09-04T19:16:38.970Z,71.50
2017-09-04T19:19:06.508Z,73.00
2017-09-04T19:21:34.076Z,71.90
2017-09-04T19:24:01.604Z,72.00
2017-09-04T19:26:29.178Z,73.50
2017-09-04T19:28:56.756Z,72.60
2017-09-04T19:31:24.360Z,71.80
2017-09-04T19:33:51.906Z,71.40
2017-09-04T19:36:19.467Z,72.40
2017-09-04T19:38:47.051Z,72.20
2017-09-04T19:41:14.597Z,72.80
2017-09-04T19:43:42.166Z,72.60
2017-09-04T19:46:09.716Z,71.20
2017-09-04T19:48:37.292Z,70.90
2017-09-04T19:51:04.840Z,70.50
2017-09-04T19:53:32.404Z,70.80
2017-09-04T19:55:59.945Z,71.40
2017-09-04T19:58:27.520Z,71.90
2017-09-04T20:00:55.070Z,71.90
2017-09-04T20:03:22.660Z,71.30
2017-09-04T20:05:50.194Z,70.80
2017-09-04T20:08:17.775Z,71.00
2017-09-04T20:10:45.367Z,71.20
2017-09-04T20:13:12.993Z,70.60
2017-09-04T20:15:41.284Z,71.60
2017-09-04T20:18:08.819Z,71.50
2017-09-04T20:20:36.412Z,72.10
2017-09-04T20:23:04.015Z,71.50
2017-09-04T20:25:31.551Z,71.30
2017-09-04T20:27:59.091Z,71.70
2017-09-04T20:30:26.704Z,72.50
2017-09-04T20:32:55.351Z,71.50
2017-09-04T20:35:22.891Z,71.70
2017-09-04T20:37:50.447Z,72.50
2017-09-04T20:40:18.036Z,73.30
2017-09-04T20:42:45.584Z,73.30
2017-09-04T20:45:13.156Z,73.70
2017-09-04T20:47:40.694Z,74.00
2017-09-04T20:50:08.252Z,73.50
2017-09-04T20:52:35.787Z,74.10
2017-09-04T20:55:03.369Z,74.00
2017-09-04T20:57:30.940Z,74.00
2017-09-04T20:59:58.515Z,74.50
2017-09-04T21:02:26.092Z,73.90
2017-09-04T21:04:53.699Z,73.70
2017-09-04T21:07:21.235Z,73.40
2017-09-04T21:09:48.821Z,74.80
2017-09-04T21:12:16.372Z,73.50
2017-09-04T21:14:43.945Z,71.90
2017-09-04T21:17:11.468Z,72.80
2017-09-04T21:19:39.045Z,73.80
2017-09-04T21:22:06.575Z,74.30
2017-09-04T21:24:34.175Z,75.80
2017-09-04T21:27:01.716Z,75.60
2017-09-04T21:29:29.283Z,76.20
2017-09-04T21:31:56.849Z,76.10
2017-09-04T21:34:24.447Z,74.90
2017-09-04T21:36:51.982Z,74.00
2017-09-04T21:39:19.548Z,73.70
2017-09-04T21:41:47.082Z,73.40
2017-09-04T21:44:14.650Z,73.40
2017-09-04T21:46:42.175Z,73.60
2017-09-04T21:49:09.744Z,74.20
2017-09-04T21:51:37.281Z,74.10
2017-09-04T21:54:04.853Z,74.10
2017-09-04T21:56:32.388Z,74.40
2017-09-04T21:58:59.964Z,73.50
2017-09-04T22:01:27.503Z,73.70
2017-09-04T22:03:55.121Z,74.20
2017-09-04T22:06:22.671Z,74.50
2017-09-04T22:08:50.256Z,74.20
2017-09-04T22:11:17.854Z,73.50
2017-09-04T22:13:45.525Z,73.40
2017-09-04T22:16:13.078Z,73.60
2017-09-04T22:18:40.671Z,74.40
2017-09-04T22:21:08.196Z,74.20
2017-09-04T22:23:36.527Z,73.20
2017-09-04T22:26:04.056Z,73.10
2017-09-04T22:28:31.623Z,72.70
2017-09-04T22:30:59.169Z,73.20
2017-09-04T22:33:26.783Z,74.00
2017-09-04T22:35:54.331Z,75.20
2017-09-04T22:38:21.955Z,75.40
2017-09-04T22:40:49.495Z,74.60
2017-09-04T22:43:17.061Z,74.10
2017-09-04T22:45:44.670Z,74.60
2017-09-04T22:48:12.257Z,76.30
2017-09-04T22:50:39.780Z,76.80
2017-09-04T22:53:07.388Z,76.80
2017-09-04T22:55:34.924Z,76.80
2017-09-04T22:58:03.325Z,78.10
2017-09-04T23:00:30.887Z,77.50
2017-09-04T23:02:58.464Z,77.40
2017-09-04T23:05:26.317Z,77.10
2017-09-04T23:07:53.901Z,76.60
2017-09-04T23:10:21.472Z,77.10
2017-09-04T23:12:49.043Z,76.50
2017-09-04T23:15:16.579Z,76.90
2017-09-04T23:17:44.243Z,77.70
2017-09-04T23:20:11.841Z,77.40
2017-09-04T23:22:39.401Z,76.60
2017-09-04T23:25:06.952Z,75.80
2017-09-04T23:27:34.515Z,75.40
2017-09-04T23:30:02.045Z,76.20
2017-09-04T23:32:29.730Z,74.90
2017-09-04T23:34:57.267Z,74.90
2017-09-04T23:37:24.854Z,74.00
2017-09-04T23:39:52.411Z,74.30
2017-09-04T23:42:19.989Z,75.90
2017-09-04T23:44:47.535Z,75.50
2017-09-04T23:47:15.175Z,74.90
2017-09-04T23:49:42.704Z,74.70
2017-09-04T23:52:10.319Z,75.30
2017-09-04T23:54:37.907Z,76.90
2017-09-04T23:57:05.439Z,76.60
2017-09-04T23:59:33.016Z,75.30
